createdAt,value
2022-10-25T00:01:56.302Z,12.90
2022-10-25T00:04:25.474Z,13.00
2022-10-25T00:06:57.033Z,13.00
2022-10-25T00:09:27.502Z,12.80
2022-10-25T00:11:56.425Z,12.80
2022-10-25T00:14:25.433Z,12.90
2022-10-25T00:16:54.264Z,12.90
2022-10-25T00:19:23.381Z,12.80
2022-10-25T00:21:52.188Z,12.80
2022-10-25T00:24:21.160Z,12.80
2022-10-25T00:26:51.550Z,12.70
2022-10-25T00:29:20.779Z,12.80
2022-10-25T00:31:49.797Z,12.80
2022-10-25T00:34:18.736Z,12.80
2022-10-25T00:36:47.714Z,12.90
2022-10-25T00:39:16.718Z,12.90
2022-10-25T00:41:45.666Z,12.90
2022-10-25T00:44:51.504Z,12.90
2022-10-25T00:47:42.405Z,12.90
2022-10-25T00:50:37.666Z,12.90
2022-10-25T00:53:10.987Z,12.90
2022-10-25T00:55:43.688Z,12.90
2022-10-25T00:58:15.566Z,12.90
2022-10-25T01:00:46.256Z,12.90
2022-10-25T01:03:18.268Z,12.90
2022-10-25T01:05:48.253Z,12.90
2022-10-25T01:08:17.997Z,12.90
2022-10-25T01:10:47.476Z,13.00
2022-10-25T01:13:16.685Z,12.90
2022-10-25T01:15:54.059Z,12.90
2022-10-25T01:18:30.466Z,13.00
2022-10-25T01:21:32.598Z,12.90
2022-10-25T01:24:31.478Z,13.00
2022-10-25T01:27:31.297Z,13.00
2022-10-25T01:30:14.494Z,13.00
2022-10-25T01:32:55.578Z,13.00
2022-10-25T01:35:30.045Z,13.00
2022-10-25T01:38:19.826Z,13.00
2022-10-25T01:40:58.877Z,13.00
2022-10-25T01:43:35.955Z,13.00
2022-10-25T01:46:13.898Z,12.90
2022-10-25T01:48:49.633Z,12.90
2022-10-25T01:51:20.244Z,12.90
2022-10-25T01:53:50.808Z,12.80
2022-10-25T01:56:27.693Z,12.90
2022-10-25T01:59:24.626Z,12.90
2022-10-25T02:02:03.241Z,12.90
2022-10-25T02:04:45.457Z,12.80
2022-10-25T02:07:22.337Z,12.70
2022-10-25T02:10:01.908Z,12.70
2022-10-25T02:12:39.100Z,12.80
2022-10-25T02:15:12.117Z,12.80
2022-10-25T02:17:48.166Z,12.80
2022-10-25T02:20:20.898Z,12.80
2022-10-25T02:22:54.350Z,12.80
2022-10-25T02:25:27.029Z,12.70
2022-10-25T02:27:57.913Z,12.70
2022-10-25T02:30:27.286Z,12.70
2022-10-25T02:32:57.903Z,12.70
2022-10-25T02:35:30.766Z,12.70
2022-10-25T02:38:00.704Z,12.80
2022-10-25T02:40:34.503Z,12.70
2022-10-25T02:43:04.335Z,12.70
2022-10-25T02:46:04.436Z,12.70
2022-10-25T02:48:34.568Z,12.70
2022-10-25T02:51:06.020Z,12.70
2022-10-25T02:53:35.870Z,12.80
2022-10-25T02:56:06.406Z,12.70
2022-10-25T02:58:38.457Z,12.80
2022-10-25T03:01:18.210Z,12.80
2022-10-25T03:03:48.385Z,12.70
2022-10-25T03:06:19.435Z,12.70
2022-10-25T03:08:49.155Z,12.60
2022-10-25T03:11:19.262Z,12.60
2022-10-25T03:13:49.203Z,12.60
2022-10-25T03:16:19.192Z,12.70
2022-10-25T03:18:48.482Z,12.70
2022-10-25T03:21:20.173Z,12.70
2022-10-25T03:23:50.416Z,12.70
2022-10-25T03:26:24.603Z,12.70
2022-10-25T03:28:56.288Z,12.80
2022-10-25T03:31:26.092Z,12.80
2022-10-25T03:33:55.392Z,12.80
2022-10-25T03:36:26.596Z,12.80
2022-10-25T03:38:56.743Z,12.80
2022-10-25T03:41:26.031Z,12.80
2022-10-25T03:43:55.364Z,12.80
2022-10-25T03:46:30.745Z,12.80
2022-10-25T03:49:00.624Z,12.80
2022-10-25T03:51:32.334Z,12.80
2022-10-25T03:54:01.716Z,12.90
2022-10-25T03:56:31.283Z,12.80
2022-10-25T03:59:03.939Z,12.80
2022-10-25T04:01:33.391Z,12.80
2022-10-25T04:04:04.153Z,12.70
2022-10-25T04:06:34.959Z,12.60
2022-10-25T04:09:05.803Z,12.60
2022-10-25T04:11:37.593Z,12.60
2022-10-25T04:14:07.472Z,12.50
2022-10-25T04:16:37.604Z,12.40
2022-10-25T04:19:06.740Z,12.30
2022-10-25T04:21:38.604Z,12.30
2022-10-25T04:24:09.216Z,12.20
2022-10-25T04:26:39.303Z,12.10
2022-10-25T04:29:09.350Z,12.10
2022-10-25T04:31:40.351Z,12.00
2022-10-25T04:34:09.790Z,12.10
2022-10-25T04:36:40.970Z,12.10
2022-10-25T04:39:10.329Z,12.10
2022-10-25T04:41:42.235Z,12.10
2022-10-25T04:44:14.561Z,12.10
2022-10-25T04:46:48.636Z,12.10
2022-10-25T04:49:20.043Z,12.10
2022-10-25T04:54:23.414Z,12.10
2022-10-25T04:56:56.017Z,12.00
2022-10-25T04:59:30.845Z,12.00
2022-10-25T05:02:00.344Z,12.00
2022-10-25T05:04:29.486Z,12.10
2022-10-25T05:07:00.166Z,12.10
2022-10-25T05:09:34.589Z,12.10
2022-10-25T05:12:04.493Z,12.20
2022-10-25T05:14:35.044Z,12.20
2022-10-25T05:17:04.348Z,12.20
2022-10-25T05:19:35.289Z,12.20
2022-10-25T05:22:10.055Z,12.20
2022-10-25T05:24:39.312Z,12.20
2022-10-25T05:27:08.926Z,12.20
2022-10-25T05:29:40.882Z,12.20
2022-10-25T05:32:10.541Z,12.20
2022-10-25T05:34:43.043Z,12.20
2022-10-25T05:37:13.766Z,12.10
2022-10-25T05:39:42.831Z,12.10
2022-10-25T05:42:13.338Z,12.00
2022-10-25T05:44:42.791Z,12.00
2022-10-25T05:47:12.845Z,11.90
2022-10-25T05:49:43.203Z,11.90
2022-10-25T05:52:15.938Z,11.90
2022-10-25T05:54:45.317Z,11.90
2022-10-25T05:57:14.468Z,11.90
2022-10-25T05:59:45.279Z,12.00
2022-10-25T06:02:14.722Z,12.00
2022-10-25T06:04:51.516Z,12.00
2022-10-25T06:07:25.366Z,12.10
2022-10-25T06:09:54.970Z,12.10
2022-10-25T06:12:24.643Z,12.20
2022-10-25T06:14:54.376Z,12.20
2022-10-25T06:17:24.005Z,12.20
2022-10-25T06:20:00.993Z,12.20
2022-10-25T06:22:31.918Z,12.20
2022-10-25T06:25:01.447Z,12.30
2022-10-25T06:27:30.644Z,12.30
2022-10-25T06:29:59.975Z,12.30
2022-10-25T06:32:30.576Z,12.30
2022-10-25T06:34:59.914Z,12.40
2022-10-25T06:37:28.837Z,12.40
2022-10-25T06:40:02.176Z,12.30
2022-10-25T06:42:32.075Z,12.30
2022-10-25T06:45:01.266Z,12.30
2022-10-25T06:47:30.277Z,12.30
2022-10-25T06:49:59.276Z,12.30
2022-10-25T06:52:32.360Z,12.40
2022-10-25T06:55:04.568Z,12.40
2022-10-25T06:57:33.675Z,12.40
2022-10-25T07:00:02.689Z,12.50
2022-10-25T07:02:35.549Z,12.60
2022-10-25T07:05:05.680Z,12.70
2022-10-25T07:07:35.596Z,12.80
2022-10-25T07:10:07.822Z,12.90
2022-10-25T07:12:39.553Z,13.00
2022-10-25T07:15:09.989Z,13.20
2022-10-25T07:17:39.001Z,13.20
2022-10-25T07:20:09.321Z,13.30
2022-10-25T07:22:38.388Z,13.40
2022-10-25T07:27:43.615Z,13.70
2022-10-25T07:30:13.612Z,13.90
2022-10-25T07:32:43.724Z,14.10
2022-10-25T07:35:13.418Z,14.30
2022-10-25T07:37:43.464Z,14.40
2022-10-25T07:40:15.420Z,14.60
2022-10-25T07:42:45.577Z,14.70
2022-10-25T07:45:18.670Z,14.90
2022-10-25T07:47:53.207Z,15.00
2022-10-25T07:50:26.795Z,15.10
2022-10-25T07:52:58.337Z,15.20
2022-10-25T07:55:29.499Z,15.40
2022-10-25T07:58:02.737Z,15.40
2022-10-25T08:00:36.187Z,15.40
2022-10-25T08:03:06.332Z,15.40
2022-10-25T08:05:39.177Z,15.30
2022-10-25T08:08:11.050Z,15.40
2022-10-25T08:10:43.493Z,15.40
2022-10-25T08:13:13.279Z,15.30
2022-10-25T08:15:43.344Z,15.60
2022-10-25T08:18:13.821Z,15.70
2022-10-25T08:21:01.283Z,15.60
2022-10-25T08:23:31.960Z,15.70
2022-10-25T08:26:03.333Z,15.40
2022-10-25T08:28:34.835Z,15.50
2022-10-25T08:31:04.755Z,15.50
2022-10-25T08:33:35.500Z,15.60
2022-10-25T08:36:06.533Z,15.70
2022-10-25T08:38:35.899Z,15.70
2022-10-25T08:41:20.474Z,15.70
2022-10-25T08:44:18.666Z,15.80
2022-10-25T08:46:59.533Z,15.90
2022-10-25T08:49:36.565Z,15.90
2022-10-25T08:52:17.789Z,16.00
2022-10-25T08:54:50.067Z,16.10
2022-10-25T08:57:25.299Z,16.30
2022-10-25T08:59:58.692Z,16.30
2022-10-25T09:02:37.980Z,16.30
2022-10-25T09:05:15.366Z,16.10
2022-10-25T09:08:05.593Z,15.90
2022-10-25T09:10:53.654Z,16.00
2022-10-25T09:13:39.799Z,15.90
2022-10-25T09:16:17.153Z,16.00
2022-10-25T09:18:50.887Z,16.10
2022-10-25T09:21:23.421Z,16.20
2022-10-25T09:24:00.664Z,16.20
2022-10-25T09:26:48.003Z,16.10
2022-10-25T09:29:26.122Z,16.10
2022-10-25T09:31:59.422Z,16.10
2022-10-25T09:34:36.644Z,16.20
2022-10-25T09:37:14.311Z,16.10
2022-10-25T09:39:48.167Z,16.10
2022-10-25T09:42:22.598Z,16.00
2022-10-25T09:45:02.042Z,16.00
2022-10-25T09:47:39.469Z,16.00
2022-10-25T09:50:17.588Z,16.00
2022-10-25T09:52:55.451Z,16.00
2022-10-25T09:55:34.969Z,15.80
2022-10-25T09:58:08.678Z,15.70
2022-10-25T10:00:42.584Z,15.70
2022-10-25T10:03:13.929Z,15.70
2022-10-25T10:05:48.457Z,15.80
2022-10-25T10:08:19.075Z,15.70
2022-10-25T10:10:53.235Z,15.60
2022-10-25T10:13:30.430Z,15.40
2022-10-25T10:16:04.396Z,15.50
2022-10-25T10:18:35.026Z,15.60
2022-10-25T10:21:17.933Z,15.60
2022-10-25T10:23:51.631Z,15.50
2022-10-25T10:26:28.671Z,15.50
2022-10-25T10:29:09.102Z,15.40
2022-10-25T10:31:45.051Z,15.30
2022-10-25T10:34:33.612Z,15.20
2022-10-25T10:37:18.102Z,15.30
2022-10-25T10:39:52.724Z,15.50
2022-10-25T10:42:24.499Z,15.80
2022-10-25T10:45:17.188Z,16.10
2022-10-25T10:47:58.468Z,16.40
2022-10-25T10:50:33.120Z,16.50
2022-10-25T10:53:04.065Z,16.50
2022-10-25T10:55:37.555Z,16.70
2022-10-25T10:58:15.210Z,16.60
2022-10-25T11:00:53.432Z,16.60
2022-10-25T11:03:58.799Z,16.60
2022-10-25T11:06:30.777Z,16.70
2022-10-25T11:09:18.214Z,16.70
2022-10-25T11:12:06.724Z,16.80
2022-10-25T11:14:36.543Z,16.80
2022-10-25T11:17:15.344Z,16.90
2022-10-25T11:19:57.588Z,16.90
2022-10-25T11:22:52.678Z,16.90
2022-10-25T11:25:35.567Z,16.80
2022-10-25T11:28:29.891Z,17.00
2022-10-25T11:31:09.514Z,16.90
2022-10-25T11:33:48.115Z,17.00
2022-10-25T11:36:38.960Z,17.10
2022-10-25T11:39:36.906Z,17.10
2022-10-25T11:45:19.960Z,17.60
2022-10-25T11:48:09.995Z,18.00
2022-10-25T11:50:49.715Z,18.20
2022-10-25T11:53:35.677Z,18.10
2022-10-25T11:56:13.688Z,18.30
2022-10-25T11:58:54.021Z,18.30
2022-10-25T12:01:39.774Z,18.10
2022-10-25T12:04:28.426Z,17.90
2022-10-25T12:07:07.837Z,17.80
2022-10-25T12:09:51.117Z,17.50
2022-10-25T12:12:24.159Z,17.30
2022-10-25T12:14:57.496Z,17.10
2022-10-25T12:17:32.064Z,17.10
2022-10-25T12:20:05.582Z,17.10
2022-10-25T12:22:41.205Z,17.10
2022-10-25T12:25:25.631Z,17.20
2022-10-25T12:28:07.143Z,17.10
2022-10-25T12:30:37.542Z,17.00
2022-10-25T12:33:24.783Z,16.90
2022-10-25T12:36:00.745Z,16.90
2022-10-25T12:38:39.111Z,17.00
2022-10-25T12:41:19.209Z,17.00
2022-10-25T12:44:06.293Z,16.90
2022-10-25T12:47:06.872Z,16.90
2022-10-25T12:50:10.605Z,17.00
2022-10-25T12:52:44.431Z,16.90
2022-10-25T12:55:42.719Z,16.80
2022-10-25T12:58:26.543Z,16.70
2022-10-25T13:01:12.564Z,16.70
2022-10-25T13:04:19.382Z,16.50
2022-10-25T13:06:50.373Z,16.50
2022-10-25T13:09:27.112Z,16.50
2022-10-25T13:12:06.121Z,16.30
2022-10-25T13:14:39.114Z,16.20
2022-10-25T13:17:44.504Z,16.20
2022-10-25T13:20:49.867Z,16.40
2022-10-25T13:23:59.965Z,16.40
2022-10-25T13:26:36.118Z,16.40
2022-10-25T13:29:26.708Z,16.30
2022-10-25T13:32:26.027Z,16.10
2022-10-25T13:34:59.419Z,16.10
2022-10-25T13:37:45.494Z,16.10
2022-10-25T13:40:34.787Z,16.00
2022-10-25T13:43:06.864Z,16.00
2022-10-25T13:45:43.618Z,16.00
2022-10-25T13:48:30.738Z,15.90
2022-10-25T13:51:03.153Z,15.80
2022-10-25T13:53:39.563Z,15.90
2022-10-25T13:56:12.195Z,15.90
2022-10-25T13:58:53.261Z,15.80
2022-10-25T14:01:56.763Z,15.80
2022-10-25T14:04:44.963Z,15.60
2022-10-25T14:08:03.460Z,15.60
2022-10-25T14:10:40.768Z,15.70
2022-10-25T14:13:24.351Z,15.60
2022-10-25T14:15:59.238Z,15.60
2022-10-25T14:18:35.861Z,15.60
2022-10-25T14:21:10.672Z,15.60
2022-10-25T14:23:42.762Z,15.60
2022-10-25T14:26:18.157Z,15.60
2022-10-25T14:28:47.980Z,15.60
2022-10-25T14:31:21.921Z,15.50
2022-10-25T14:33:56.650Z,15.50
2022-10-25T14:36:32.704Z,15.40
2022-10-25T14:39:03.171Z,15.40
2022-10-25T14:41:35.828Z,15.40
2022-10-25T14:44:21.808Z,15.30
2022-10-25T14:46:55.544Z,15.20
2022-10-25T14:49:26.877Z,15.00
2022-10-25T14:52:04.805Z,15.00
2022-10-25T14:54:36.560Z,14.90
2022-10-25T14:57:08.712Z,14.90
2022-10-25T14:59:45.505Z,14.80
2022-10-25T15:02:19.667Z,14.70
2022-10-25T15:04:53.346Z,14.80
2022-10-25T15:07:27.316Z,14.70
2022-10-25T15:09:58.862Z,14.80
2022-10-25T15:12:30.810Z,14.70
2022-10-25T15:15:24.325Z,14.70
2022-10-25T15:17:58.642Z,14.70
2022-10-25T15:20:38.026Z,14.80
2022-10-25T15:23:20.295Z,14.80
2022-10-25T15:25:54.034Z,14.70
2022-10-25T15:28:24.756Z,14.70
2022-10-25T15:31:07.807Z,14.70
2022-10-25T15:33:39.675Z,14.60
2022-10-25T15:36:23.775Z,14.60
2022-10-25T15:39:08.177Z,14.50
2022-10-25T15:41:41.432Z,14.40
2022-10-25T15:44:11.100Z,14.40
2022-10-25T15:46:42.850Z,14.30
2022-10-25T15:49:18.641Z,14.30
2022-10-25T15:51:49.715Z,14.20
2022-10-25T15:54:21.952Z,14.20
2022-10-25T15:56:54.523Z,14.10
2022-10-25T15:59:25.153Z,14.10
2022-10-25T16:01:56.667Z,14.00
2022-10-25T16:04:27.979Z,14.00
2022-10-25T16:06:57.489Z,14.00
2022-10-25T16:09:27.904Z,14.00
2022-10-25T16:11:57.826Z,14.00
2022-10-25T16:14:29.147Z,14.00
2022-10-25T16:17:01.048Z,14.00
2022-10-25T16:19:32.755Z,14.00
2022-10-25T16:22:02.626Z,14.00
2022-10-25T16:24:33.298Z,14.00
2022-10-25T16:27:03.598Z,14.00
2022-10-25T16:29:33.182Z,14.00
2022-10-25T16:32:06.989Z,14.00
2022-10-25T16:34:36.880Z,13.90
2022-10-25T16:37:11.373Z,13.90
2022-10-25T16:39:46.065Z,13.90
2022-10-25T16:42:32.153Z,13.80
2022-10-25T16:45:03.004Z,13.80
2022-10-25T16:47:37.983Z,13.80
2022-10-25T16:50:08.503Z,13.90
2022-10-25T16:52:38.162Z,13.90
2022-10-25T16:55:14.130Z,13.90
2022-10-25T16:57:45.015Z,13.90
2022-10-25T17:00:15.623Z,13.90
2022-10-25T17:02:45.045Z,14.00
2022-10-25T17:05:19.103Z,14.00
2022-10-25T17:07:51.935Z,14.00
2022-10-25T17:10:24.084Z,14.00
2022-10-25T17:13:00.303Z,14.10
2022-10-25T17:15:31.148Z,14.10
2022-10-25T17:18:00.810Z,14.10
2022-10-25T17:20:30.747Z,14.20
2022-10-25T17:23:04.103Z,14.20
2022-10-25T17:25:37.705Z,14.20
2022-10-25T17:28:10.062Z,14.10
2022-10-25T17:30:46.775Z,14.00
2022-10-25T17:33:18.903Z,14.10
2022-10-25T17:35:50.942Z,14.10
2022-10-25T17:38:23.151Z,14.10
2022-10-25T17:40:54.383Z,14.00
2022-10-25T17:43:23.983Z,14.10
2022-10-25T17:45:55.591Z,14.00
2022-10-25T17:48:25.622Z,14.00
2022-10-25T17:50:56.463Z,14.00
2022-10-25T17:53:25.975Z,14.00
2022-10-25T17:55:59.122Z,13.90
2022-10-25T17:58:28.273Z,13.90
2022-10-25T18:00:57.606Z,14.00
2022-10-25T18:03:29.283Z,14.00
2022-10-25T18:06:03.718Z,14.00
2022-10-25T18:08:33.169Z,13.90
2022-10-25T18:11:10.825Z,14.00
2022-10-25T18:13:41.514Z,13.90
2022-10-25T18:16:12.391Z,13.90
2022-10-25T18:18:42.686Z,13.90
2022-10-25T18:21:14.631Z,13.90
2022-10-25T18:23:45.062Z,13.90
2022-10-25T18:26:18.350Z,13.90
2022-10-25T18:28:48.655Z,13.90
2022-10-25T18:31:18.393Z,13.90
2022-10-25T18:33:49.714Z,13.90
2022-10-25T18:36:21.098Z,13.80
2022-10-25T18:38:52.205Z,13.80
2022-10-25T18:41:26.874Z,13.80
2022-10-25T18:43:56.896Z,13.80
2022-10-25T18:46:29.795Z,13.80
2022-10-25T18:49:01.315Z,13.80
2022-10-25T18:51:32.634Z,13.80
2022-10-25T18:54:04.375Z,13.80
2022-10-25T18:56:35.540Z,13.70
2022-10-25T18:59:08.903Z,13.70
2022-10-25T19:01:40.339Z,13.70
2022-10-25T19:04:12.424Z,13.70
2022-10-25T19:06:43.164Z,13.70
2022-10-25T19:09:15.206Z,13.70
2022-10-25T19:11:51.808Z,13.70
2022-10-25T19:14:27.401Z,13.60
2022-10-25T19:16:58.752Z,13.60
2022-10-25T19:19:29.060Z,13.60
2022-10-25T19:21:59.373Z,13.50
2022-10-25T19:24:31.057Z,13.30
2022-10-25T19:27:04.273Z,13.10
2022-10-25T19:29:42.953Z,13.00
2022-10-25T19:32:22.861Z,12.90
2022-10-25T19:34:56.511Z,12.70
2022-10-25T19:37:26.792Z,12.60
2022-10-25T19:39:58.937Z,12.50
2022-10-25T19:42:43.080Z,12.40
2022-10-25T19:45:14.292Z,12.30
2022-10-25T19:47:44.787Z,12.20
2022-10-25T19:50:15.703Z,12.10
2022-10-25T19:52:47.046Z,12.10
2022-10-25T19:55:19.007Z,12.00
2022-10-25T19:57:50.760Z,11.90
2022-10-25T20:00:22.843Z,11.90
2022-10-25T20:02:52.545Z,11.80
2022-10-25T20:05:23.651Z,11.80
2022-10-25T20:07:54.310Z,11.70
2022-10-25T20:10:23.799Z,11.70
2022-10-25T20:12:55.959Z,11.70
2022-10-25T20:15:27.164Z,11.60
2022-10-25T20:18:08.533Z,11.60
2022-10-25T20:20:38.293Z,11.60
2022-10-25T20:23:07.728Z,11.50
2022-10-25T20:25:37.237Z,11.50
2022-10-25T20:28:09.116Z,11.50
2022-10-25T20:30:42.209Z,11.40
2022-10-25T20:33:11.318Z,11.40
2022-10-25T20:35:41.934Z,11.30
2022-10-25T20:38:14.234Z,11.30
2022-10-25T20:40:44.765Z,11.30
2022-10-25T20:43:15.980Z,11.20
2022-10-25T20:45:50.669Z,11.30
2022-10-25T20:48:19.995Z,11.30
2022-10-25T20:51:02.976Z,11.30
2022-10-25T20:53:39.684Z,11.30
2022-10-25T20:56:09.744Z,11.30
2022-10-25T20:58:40.492Z,11.40
2022-10-25T21:01:09.642Z,11.40
2022-10-25T21:03:39.852Z,11.40
2022-10-25T21:06:11.045Z,11.50
2022-10-25T21:08:41.483Z,11.50
2022-10-25T21:11:13.426Z,11.50
2022-10-25T21:13:44.073Z,11.50
2022-10-25T21:16:14.901Z,11.50
2022-10-25T21:18:45.013Z,11.60
2022-10-25T21:21:20.914Z,11.70
2022-10-25T21:23:50.872Z,11.80
2022-10-25T21:26:20.242Z,11.90
2022-10-25T21:28:50.841Z,12.00
2022-10-25T21:31:19.984Z,12.00
2022-10-25T21:33:53.170Z,12.00
2022-10-25T21:36:25.907Z,12.00
2022-10-25T21:38:56.018Z,12.00
2022-10-25T21:41:27.295Z,12.00
2022-10-25T21:43:59.510Z,12.10
2022-10-25T21:46:31.256Z,12.10
2022-10-25T21:49:02.067Z,12.10
2022-10-25T21:51:32.067Z,12.10
2022-10-25T21:54:03.389Z,12.10
2022-10-25T21:56:33.371Z,12.10
2022-10-25T21:59:05.988Z,12.10
2022-10-25T22:01:36.792Z,12.10
2022-10-25T22:04:06.227Z,12.10
2022-10-25T22:06:36.387Z,12.00
2022-10-25T22:09:05.932Z,12.00
2022-10-25T22:11:37.258Z,12.00
2022-10-25T22:14:11.149Z,12.00
2022-10-25T22:16:40.848Z,12.00
2022-10-25T22:19:16.388Z,11.90
2022-10-25T22:21:46.538Z,11.80
2022-10-25T22:24:17.375Z,11.80
2022-10-25T22:26:48.585Z,11.70
2022-10-25T22:29:19.502Z,11.70
2022-10-25T22:31:50.331Z,11.70
2022-10-25T22:34:24.513Z,11.70
2022-10-25T22:36:53.706Z,11.60
2022-10-25T22:39:40.954Z,11.50
2022-10-25T22:42:15.499Z,11.40
2022-10-25T22:44:46.778Z,11.40
2022-10-25T22:47:18.330Z,11.40
2022-10-25T22:49:48.210Z,11.40
2022-10-25T22:52:20.938Z,11.30
2022-10-25T22:54:52.593Z,11.20
2022-10-25T22:57:23.158Z,11.10
2022-10-25T22:59:54.132Z,11.00
2022-10-25T23:02:23.980Z,10.90
2022-10-25T23:04:54.600Z,10.80
2022-10-25T23:07:25.047Z,10.80
2022-10-25T23:09:54.401Z,10.80
2022-10-25T23:12:24.032Z,10.80
2022-10-25T23:14:55.331Z,10.90
2022-10-25T23:17:25.075Z,11.00
2022-10-25T23:19:54.538Z,11.20
2022-10-25T23:22:24.087Z,11.30
2022-10-25T23:24:54.016Z,11.40
2022-10-25T23:27:23.475Z,11.50
2022-10-25T23:29:55.041Z,11.50
2022-10-25T23:32:25.616Z,11.50
2022-10-25T23:34:57.091Z,11.50
2022-10-25T23:37:27.038Z,11.50
2022-10-25T23:39:57.413Z,11.50
2022-10-25T23:42:26.848Z,11.60
2022-10-25T23:45:04.732Z,11.50
2022-10-25T23:47:35.395Z,11.60
2022-10-25T23:50:04.651Z,11.60
2022-10-25T23:52:34.200Z,11.50
2022-10-25T23:55:03.934Z,11.50
2022-10-25T23:57:36.003Z,11.50
